Time;durP1;ratioP1;P1;durP2;ratioP2;P2;SDS_P1;SDS_P2;PMS_P1;PMS_P2;Temp;Humidity;BMP_temperature;BMP_pressure;BME280_temperature;BME280_humidity;BME280_pressure;Samples;Min_cycle;Max_cycle;Signal;HPM_P1;HPM_P2
2021/01/24 00:01:06;;;;;;;28.7;20.7;;;;;;;3.03;81.93457;96794.89;;;;
2021/01/24 00:11:06;;;;;;;23.1;16.1;;;;;;;3.1;81.49219;96783.83;;;;
2021/01/24 00:21:01;;;;;;;34.5;20.5;;;;;;;3.18;80.81934;96758.36;;;;
2021/01/24 00:30:59;;;;;;;30.8;23.7;;;;;;;3.07;80.89844;96751.7;;;;
2021/01/24 00:41:01;;;;;;;29.5;22.6;;;;;;;3.01;81.05469;96732.43;;;;
2021/01/24 00:50:55;;;;;;;32.1;23.9;;;;;;;2.94;81.55078;96732.86;;;;
2021/01/24 01:00:53;;;;;;;32.1;23.3;;;;;;;2.77;82.8125;96724.77;;;;
2021/01/24 01:10:51;;;;;;;31.9;22.9;;;;;;;2.69;83.42578;96708.73;;;;
2021/01/24 01:20:49;;;;;;;51.1;26.7;;;;;;;2.66;83.48828;96696.84;;;;
2021/01/24 01:30:47;;;;;;;41.3;25;;;;;;;2.6;83.33203;96692.73;;;;
2021/01/24 01:40:45;;;;;;;33.4;24.2;;;;;;;2.64;83.41797;96704.31;;;;
2021/01/24 01:50:43;;;;;;;31.7;21.8;;;;;;;2.74;83.15918;96682.03;;;;
2021/01/24 02:00:41;;;;;;;31.8;24.7;;;;;;;2.7;83.81543;96673.88;;;;
2021/01/24 02:10:39;;;;;;;32;25.9;;;;;;;2.74;83.39355;96680.13;;;;
2021/01/24 02:20:38;;;;;;;32.8;20.5;;;;;;;2.77;83.08887;96678.77;;;;
2021/01/24 02:30:35;;;;;;;28.8;21.8;;;;;;;2.68;83.71289;96670.71;;;;
2021/01/24 02:40:33;;;;;;;27.8;19.2;;;;;;;2.74;83.23633;96674.05;;;;
2021/01/24 02:50:32;;;;;;;37.6;23.1;;;;;;;2.68;83.50098;96659.28;;;;
2021/01/24 03:00:30;;;;;;;29.8;20.3;;;;;;;2.71;82.97754;96648.83;;;;
2021/01/24 03:20:26;;;;;;;35.9;27;;;;;;;2.46;84.19922;96620.22;;;;
2021/01/24 03:30:24;;;;;;;38.7;28.6;;;;;;;2.49;83.38867;96614.3;;;;
2021/01/24 03:40:22;;;;;;;45.5;29.5;;;;;;;2.34;83.71094;96598.7;;;;
2021/01/24 03:50:20;;;;;;;29.4;22.8;;;;;;;2.44;83.13574;96596.59;;;;
2021/01/24 04:00:18;;;;;;;31.3;23.4;;;;;;;2.33;83.5459;96586.49;;;;
2021/01/24 04:10:16;;;;;;;32.1;24.5;;;;;;;2.21;84.13965;96578.3;;;;
2021/01/24 04:20:14;;;;;;;40.5;25.6;;;;;;;2.2;83.81738;96579.38;;;;
2021/01/24 04:30:12;;;;;;;29.7;23.2;;;;;;;2;84.81641;96562.84;;;;
2021/01/24 04:40:10;;;;;;;30;25.4;;;;;;;2.06;84.7832;96546.77;;;;
2021/01/24 04:50:10;;;;;;;33.1;29;;;;;;;1.99;85.81836;96541.88;;;;
2021/01/24 05:00:11;;;;;;;27.3;22.1;;;;;;;2.05;85.18945;96523.97;;;;
2021/01/24 05:10:04;;;;;;;30.2;24.8;;;;;;;1.88;86.84277;96521.95;;;;
2021/01/24 05:20:02;;;;;;;30.5;22.6;;;;;;;1.89;86.26172;96532.3;;;;
2021/01/24 05:30:00;;;;;;;29.1;25.7;;;;;;;1.93;86.39063;96524.5;;;;
2021/01/24 05:39:58;;;;;;;33.2;25;;;;;;;1.92;86.46582;96510.44;;;;
2021/01/24 05:49:56;;;;;;;34.9;26.1;;;;;;;1.71;87.97559;96479.34;;;;
2021/01/24 05:59:53;;;;;;;24.2;21.6;;;;;;;1.68;88.58691;96525.09;;;;
2021/01/24 06:09:51;;;;;;;43.1;28.1;;;;;;;1.49;89.33008;96504.03;;;;
2021/01/24 06:19:49;;;;;;;29.8;24.7;;;;;;;1.61;88.58398;96512.23;;;;
2021/01/24 06:29:47;;;;;;;37.1;27.1;;;;;;;1.62;88.37793;96495.23;;;;
2021/01/24 06:39:45;;;;;;;32.8;29.3;;;;;;;1.54;88.90137;96485.32;;;;
2021/01/24 06:49:43;;;;;;;36;27;;;;;;;1.61;89.10059;96501.61;;;;
2021/01/24 06:59:41;;;;;;;42.9;32.1;;;;;;;1.66;88.67188;96504.17;;;;
2021/01/24 07:09:39;;;;;;;49.1;39.3;;;;;;;1.69;88.58887;96498.25;;;;
2021/01/24 07:19:37;;;;;;;49.4;34.1;;;;;;;1.8;88.17285;96504.9;;;;
2021/01/24 07:29:34;;;;;;;36.5;27.1;;;;;;;1.8;88.07129;96506.77;;;;
2021/01/24 07:39:32;;;;;;;36.5;32.6;;;;;;;1.62;88.64063;96486.48;;;;
2021/01/24 07:49:30;;;;;;;40;29.7;;;;;;;1.94;87.93555;96505.59;;;;
2021/01/24 07:59:28;;;;;;;36.9;33;;;;;;;2.03;87.49316;96564.89;;;;
2021/01/24 08:09:26;;;;;;;30.4;25.8;;;;;;;1.95;87.74121;96573.58;;;;
2021/01/24 08:19:24;;;;;;;33.2;29.9;;;;;;;1.89;88.2002;96576.66;;;;
2021/01/24 08:29:22;;;;;;;37;32.2;;;;;;;2;88.33203;96591.28;;;;
2021/01/24 08:39:20;;;;;;;49;37.6;;;;;;;2.01;87.99609;96598.93;;;;
2021/01/24 08:49:18;;;;;;;38.5;34.2;;;;;;;2.07;87.81738;96598.83;;;;
2021/01/24 08:59:19;;;;;;;50.5;39.8;;;;;;;2.14;88.0752;96607.16;;;;
2021/01/24 09:09:14;;;;;;;39.8;31.2;;;;;;;2.23;87.28809;96608;;;;
2021/01/24 09:19:12;;;;;;;23.3;20.8;;;;;;;2.21;86.03809;96612.84;;;;
2021/01/24 09:29:10;;;;;;;34.6;20.9;;;;;;;2.72;85.63184;96628.34;;;;
2021/01/24 09:39:09;;;;;;;24.7;20.9;;;;;;;2.69;84.49805;96631.61;;;;
2021/01/24 09:49:09;;;;;;;23.9;20;;;;;;;2.62;83.88867;96647.21;;;;
2021/01/24 09:59:04;;;;;;;20.6;16.3;;;;;;;2.52;84.03516;96649.03;;;;
2021/01/24 10:09:02;;;;;;;18.7;14.7;;;;;;;2.49;84.04102;96652.3;;;;
2021/01/24 10:19:00;;;;;;;19.1;13.2;;;;;;;2.68;81.93066;96632.69;;;;
2021/01/24 10:28:58;;;;;;;17;12.7;;;;;;;2.85;82.38574;96660.17;;;;
2021/01/24 10:38:56;;;;;;;24.6;17.2;;;;;;;2.64;81.94824;96667.08;;;;
2021/01/24 10:48:54;;;;;;;26;19.1;;;;;;;2.84;81.25488;96679.91;;;;
2021/01/24 10:58:52;;;;;;;29.4;21.4;;;;;;;2.77;81.20801;96684.08;;;;
2021/01/24 11:08:50;;;;;;;28.3;23.5;;;;;;;2.9;80.44629;96699.18;;;;
2021/01/24 11:18:48;;;;;;;30.5;23.3;;;;;;;2.93;80.13184;96706.55;;;;
2021/01/24 11:28:46;;;;;;;39.8;25.9;;;;;;;2.83;80.13574;96709.46;;;;
2021/01/24 11:38:44;;;;;;;32;24.3;;;;;;;3.04;79.86523;96706;;;;
2021/01/24 11:48:42;;;;;;;25.7;19.6;;;;;;;3.14;79.90625;96710.27;;;;
2021/01/24 11:58:40;;;;;;;23.9;19.3;;;;;;;3.02;79.28418;96718.02;;;;
2021/01/24 12:08:38;;;;;;;23.7;21.2;;;;;;;2.98;80.16406;96731.17;;;;
2021/01/24 12:18:36;;;;;;;28.7;20.6;;;;;;;2.74;80.09473;96740.55;;;;
2021/01/24 12:28:34;;;;;;;27.1;22.3;;;;;;;3.05;79.51074;96733.41;;;;
2021/01/24 12:38:32;;;;;;;28.2;22.7;;;;;;;3.04;79.42188;96740.59;;;;
2021/01/24 12:48:30;;;;;;;27.4;21.9;;;;;;;2.97;79.25391;96732.25;;;;
2021/01/24 12:58:29;;;;;;;21.7;19.4;;;;;;;2.79;79.71777;96753.7;;;;
2021/01/24 13:08:27;;;;;;;27.9;17.7;;;;;;;2.79;79.82813;96746.52;;;;
2021/01/24 13:18:24;;;;;;;21.7;18.8;;;;;;;2.84;80.29004;96753.6;;;;
2021/01/24 13:28:22;;;;;;;28.4;17.3;;;;;;;2.89;80.13574;96759.58;;;;
2021/01/24 13:38:20;;;;;;;26.4;18.7;;;;;;;3;80.08789;96781.41;;;;
2021/01/24 13:48:18;;;;;;;29.3;19.7;;;;;;;2.99;80.06543;96772.64;;;;
2021/01/24 13:58:16;;;;;;;33.8;25.3;;;;;;;3.03;80.4502;96778.93;;;;
2021/01/24 14:08:14;;;;;;;23.9;18.1;;;;;;;3.1;80.5498;96783.03;;;;
2021/01/24 14:18:12;;;;;;;21;17.8;;;;;;;3.1;80.41602;96791.02;;;;
2021/01/24 16:32:25;;;;;;;14.4;8.4;;;;;;;2.08;72.4375;96911.27;;;;
2021/01/24 16:42:23;;;;;;;24.6;8.4;;;;;;;1.81;73.86426;96925.27;;;;
2021/01/24 16:52:24;;;;;;;14.9;12;;;;;;;1.73;74.32715;96924.09;;;;
2021/01/24 17:02:18;;;;;;;25.2;12.9;;;;;;;1.78;73.87109;96920.53;;;;
2021/01/24 17:12:16;;;;;;;21.9;16.8;;;;;;;1.86;73.50781;96925.98;;;;
2021/01/24 17:22:19;;;;;;;17.9;13.1;;;;;;;1.82;73.80078;96919.67;;;;
2021/01/24 17:32:12;;;;;;;23.5;13.1;;;;;;;1.77;74.38867;96925.05;;;;
2021/01/24 17:42:10;;;;;;;44.7;29.1;;;;;;;1.84;74.71094;96936.09;;;;
2021/01/24 17:52:08;;;;;;;37;29.4;;;;;;;1.79;74.41406;96938.84;;;;
2021/01/24 18:02:08;;;;;;;19;16.6;;;;;;;1.67;74.72461;96943.02;;;;
2021/01/24 18:12:04;;;;;;;47;34.7;;;;;;;1.59;75.54102;96960.42;;;;
2021/01/24 18:22:02;;;;;;;50;29;;;;;;;1.55;76.35059;96966.59;;;;
2021/01/24 18:31:59;;;;;;;25.8;17.5;;;;;;;1.42;76.37305;96963.57;;;;
2021/01/24 18:41:57;;;;;;;30.7;21.7;;;;;;;1.18;77.37793;96962.09;;;;
2021/01/24 18:51:55;;;;;;;18.9;14.2;;;;;;;1.2;74.94141;96949.32;;;;
2021/01/24 19:01:53;;;;;;;21.3;15.8;;;;;;;1.12;75.5791;96957.91;;;;
2021/01/24 19:11:51;;;;;;;19.3;14.5;;;;;;;1.13;75.92285;96968.25;;;;
2021/01/24 19:21:49;;;;;;;23.3;12.9;;;;;;;1.07;76.5293;96979.22;;;;
2021/01/24 19:31:46;;;;;;;21;13.1;;;;;;;1.09;75.71777;96988.46;;;;
2021/01/24 19:41:44;;;;;;;14.3;10.2;;;;;;;1.14;75.0293;96987.61;;;;
2021/01/24 19:51:42;;;;;;;13.1;9.8;;;;;;;1.11;74.52832;96967.73;;;;
2021/01/24 20:01:40;;;;;;;20.1;14.4;;;;;;;1;74.70801;96953.84;;;;
2021/01/24 20:11:38;;;;;;;22.8;13.1;;;;;;;0.92;75.10254;96954.47;;;;
2021/01/24 20:21:35;;;;;;;18.9;10.4;;;;;;;1;73.30469;96955.7;;;;
2021/01/24 20:31:33;;;;;;;18.2;9.8;;;;;;;1.19;72.16504;96958.34;;;;
2021/01/24 20:41:31;;;;;;;13.2;9.2;;;;;;;1.19;72.07617;96974.27;;;;
2021/01/24 20:51:29;;;;;;;11.7;7.9;;;;;;;1.26;71.20508;96980.01;;;;
2021/01/24 21:01:26;;;;;;;13.5;8.4;;;;;;;1.24;70.91406;96982.17;;;;
2021/01/24 21:11:24;;;;;;;17.3;10.1;;;;;;;1.26;70.6748;96980.01;;;;
2021/01/24 21:21:24;;;;;;;10.7;6.9;;;;;;;1.22;70.64551;96957.77;;;;
2021/01/24 21:31:20;;;;;;;11;7;;;;;;;1.23;70.59277;96951.39;;;;
2021/01/24 21:41:18;;;;;;;14.2;10.5;;;;;;;1.14;70.6543;96942.52;;;;
2021/01/24 21:51:16;;;;;;;13.8;8.4;;;;;;;1.1;70.71484;96952.91;;;;
2021/01/24 22:01:14;;;;;;;14.4;9.6;;;;;;;1.04;71.06836;96924.09;;;;
2021/01/24 22:11:12;;;;;;;21.2;13.8;;;;;;;0.92;71.51367;96917.34;;;;
2021/01/24 22:21:10;;;;;;;11.8;9.5;;;;;;;0.91;71.50293;96910.45;;;;
2021/01/24 22:31:07;;;;;;;17.6;12.9;;;;;;;0.89;71.63086;96906.52;;;;
2021/01/24 22:41:05;;;;;;;27;18;;;;;;;0.79;72.86035;96912.75;;;;
2021/01/24 22:51:03;;;;;;;21.9;18.7;;;;;;;0.79;73.28027;96912.75;;;;
2021/01/24 23:01:01;;;;;;;23.5;17;;;;;;;0.78;73.26953;96916.47;;;;
2021/01/24 23:10:59;;;;;;;19.2;16.4;;;;;;;0.69;74.48828;96923.49;;;;
2021/01/24 23:20:57;;;;;;;28.4;19.5;;;;;;;0.64;74.64453;96933.35;;;;
2021/01/24 23:30:55;;;;;;;23.9;17.3;;;;;;;0.64;74.54688;96947.4;;;;
2021/01/24 23:40:53;;;;;;;20.4;16.2;;;;;;;0.67;74.9707;96949.48;;;;
2021/01/24 23:50:51;;;;;;;33.3;19.3;;;;;;;0.68;75.21484;96953.72;;;;
